sensor_id;sensor_type;location;lat;lon;timestamp;pressure;altitude;pressure_sealevel;temperature;humidity
7834;BME280;3962;42.696;23.354;2022-11-20T00:00:55;94536.63;;;14.89;85.73
7834;BME280;3962;42.696;23.354;2022-11-20T00:03:23;94531.56;;;15.21;82.59
7834;BME280;3962;42.696;23.354;2022-11-20T00:05:50;94504.16;;;15.47;80.59
7834;BME280;3962;42.696;23.354;2022-11-20T00:08:17;94501.91;;;15.78;77.41
7834;BME280;3962;42.696;23.354;2022-11-20T00:10:52;94515.16;;;15.86;78.44
7834;BME280;3962;42.696;23.354;2022-11-20T00:13:19;94519.44;;;15.74;79.51
7834;BME280;3962;42.696;23.354;2022-11-20T00:15:57;94522.19;;;15.59;80.19
7834;BME280;3962;42.696;23.354;2022-11-20T00:18:36;94515.91;;;15.73;78.60
7834;BME280;3962;42.696;23.354;2022-11-20T00:21:04;94519.81;;;15.71;79.45
7834;BME280;3962;42.696;23.354;2022-11-20T00:23:31;94527.34;;;15.54;80.07
7834;BME280;3962;42.696;23.354;2022-11-20T00:26:02;94514.75;;;15.55;80.19
7834;BME280;3962;42.696;23.354;2022-11-20T00:28:30;94499.69;;;15.54;79.70
7834;BME280;3962;42.696;23.354;2022-11-20T00:31:01;94498.22;;;15.51;80.04
7834;BME280;3962;42.696;23.354;2022-11-20T00:33:30;94526.31;;;15.55;79.33
7834;BME280;3962;42.696;23.354;2022-11-20T00:36:02;94519.94;;;15.90;76.23
7834;BME280;3962;42.696;23.354;2022-11-20T00:38:31;94510.06;;;15.97;76.16
7834;BME280;3962;42.696;23.354;2022-11-20T00:40:59;94506.16;;;16.00;76.30
7834;BME280;3962;42.696;23.354;2022-11-20T00:43:27;94505.53;;;15.98;76.11
7834;BME280;3962;42.696;23.354;2022-11-20T00:45:58;94491.13;;;16.05;75.55
7834;BME280;3962;42.696;23.354;2022-11-20T00:48:31;94511.03;;;16.24;73.62
7834;BME280;3962;42.696;23.354;2022-11-20T00:51:01;94522.75;;;16.16;75.21
7834;BME280;3962;42.696;23.354;2022-11-20T00:53:30;94489.31;;;16.19;73.33
7834;BME280;3962;42.696;23.354;2022-11-20T00:55:59;94503.16;;;16.56;71.39
7834;BME280;3962;42.696;23.354;2022-11-20T00:58:31;94500.69;;;16.74;69.81
7834;BME280;3962;42.696;23.354;2022-11-20T01:01:04;94502.22;;;17.16;68.76
7834;BME280;3962;42.696;23.354;2022-11-20T01:03:38;94510.75;;;17.45;66.53
7834;BME280;3962;42.696;23.354;2022-11-20T01:06:10;94493.53;;;17.66;64.02
7834;BME280;3962;42.696;23.354;2022-11-20T01:08:45;94488.34;;;17.77;65.54
7834;BME280;3962;42.696;23.354;2022-11-20T01:11:27;94512.19;;;17.54;65.58
7834;BME280;3962;42.696;23.354;2022-11-20T01:14:05;94485.47;;;17.53;65.65
7834;BME280;3962;42.696;23.354;2022-11-20T01:16:34;94493.53;;;17.53;65.03
7834;BME280;3962;42.696;23.354;2022-11-20T01:19:19;94493.34;;;17.54;65.12
7834;BME280;3962;42.696;23.354;2022-11-20T01:21:50;94491.69;;;17.53;65.14
7834;BME280;3962;42.696;23.354;2022-11-20T01:24:20;94505.75;;;17.42;65.48
7834;BME280;3962;42.696;23.354;2022-11-20T01:26:50;94472.25;;;17.38;65.63
7834;BME280;3962;42.696;23.354;2022-11-20T01:29:19;94480.31;;;17.45;64.51
7834;BME280;3962;42.696;23.354;2022-11-20T01:31:46;94478.00;;;17.68;63.16
7834;BME280;3962;42.696;23.354;2022-11-20T01:34:38;94483.19;;;17.76;63.13
7834;BME280;3962;42.696;23.354;2022-11-20T01:40:29;94456.22;;;17.95;61.70
7834;BME280;3962;42.696;23.354;2022-11-20T01:43:06;94452.06;;;17.93;62.30
7834;BME280;3962;42.696;23.354;2022-11-20T01:46:13;94431.66;;;17.79;63.15
7834;BME280;3962;42.696;23.354;2022-11-20T01:48:46;94446.19;;;17.58;65.10
7834;BME280;3962;42.696;23.354;2022-11-20T01:51:21;94446.78;;;17.34;65.66
7834;BME280;3962;42.696;23.354;2022-11-20T01:54:10;94465.84;;;17.39;65.10
7834;BME280;3962;42.696;23.354;2022-11-20T01:56:44;94461.69;;;17.63;63.58
7834;BME280;3962;42.696;23.354;2022-11-20T01:59:21;94460.97;;;18.00;61.62
7834;BME280;3962;42.696;23.354;2022-11-20T02:01:59;94450.31;;;18.31;60.88
7834;BME280;3962;42.696;23.354;2022-11-20T02:04:28;94470.44;;;18.15;61.41
7834;BME280;3962;42.696;23.354;2022-11-20T02:07:01;94454.53;;;18.07;61.74
7834;BME280;3962;42.696;23.354;2022-11-20T02:09:35;94448.03;;;18.34;59.70
7834;BME280;3962;42.696;23.354;2022-11-20T02:12:03;94444.50;;;18.27;60.44
7834;BME280;3962;42.696;23.354;2022-11-20T02:14:34;94442.56;;;17.97;61.46
7834;BME280;3962;42.696;23.354;2022-11-20T02:17:00;94468.41;;;18.11;60.84
7834;BME280;3962;42.696;23.354;2022-11-20T02:19:30;94459.72;;;18.02;61.75
7834;BME280;3962;42.696;23.354;2022-11-20T02:22:02;94455.78;;;18.05;61.11
7834;BME280;3962;42.696;23.354;2022-11-20T02:24:35;94465.47;;;18.19;60.75
7834;BME280;3962;42.696;23.354;2022-11-20T02:27:06;94473.38;;;18.07;61.38
7834;BME280;3962;42.696;23.354;2022-11-20T02:29:39;94464.78;;;18.43;59.09
7834;BME280;3962;42.696;23.354;2022-11-20T02:32:18;94464.16;;;18.41;59.83
7834;BME280;3962;42.696;23.354;2022-11-20T02:34:51;94468.84;;;18.58;58.20
7834;BME280;3962;42.696;23.354;2022-11-20T02:37:37;94460.84;;;18.39;60.09
7834;BME280;3962;42.696;23.354;2022-11-20T02:40:10;94477.03;;;18.32;59.90
7834;BME280;3962;42.696;23.354;2022-11-20T02:42:40;94487.13;;;18.50;58.85
7834;BME280;3962;42.696;23.354;2022-11-20T02:45:20;94474.88;;;18.54;58.23
7834;BME280;3962;42.696;23.354;2022-11-20T02:47:51;94479.81;;;18.63;58.71
7834;BME280;3962;42.696;23.354;2022-11-20T02:50:19;94482.31;;;18.58;58.41
7834;BME280;3962;42.696;23.354;2022-11-20T02:52:46;94492.84;;;18.66;58.64
7834;BME280;3962;42.696;23.354;2022-11-20T02:55:18;94490.13;;;18.73;58.84
7834;BME280;3962;42.696;23.354;2022-11-20T02:57:46;94499.81;;;18.80;58.81
7834;BME280;3962;42.696;23.354;2022-11-20T03:00:26;94486.69;;;18.90;58.67
7834;BME280;3962;42.696;23.354;2022-11-20T03:03:02;94518.22;;;18.89;59.05
7834;BME280;3962;42.696;23.354;2022-11-20T03:05:30;94514.28;;;18.92;58.62
7834;BME280;3962;42.696;23.354;2022-11-20T03:08:03;94541.69;;;18.83;59.28
7834;BME280;3962;42.696;23.354;2022-11-20T03:10:32;94518.94;;;18.72;59.29
7834;BME280;3962;42.696;23.354;2022-11-20T03:13:00;94521.44;;;18.67;59.62
7834;BME280;3962;42.696;23.354;2022-11-20T03:15:29;94527.09;;;18.53;60.38
7834;BME280;3962;42.696;23.354;2022-11-20T03:18:00;94516.47;;;18.64;59.71
7834;BME280;3962;42.696;23.354;2022-11-20T03:20:56;94530.34;;;18.68;59.90
7834;BME280;3962;42.696;23.354;2022-11-20T03:23:31;94530.16;;;18.63;60.01
7834;BME280;3962;42.696;23.354;2022-11-20T03:26:11;94538.72;;;18.53;60.75
7834;BME280;3962;42.696;23.354;2022-11-20T03:28:41;94541.66;;;18.45;60.91
7834;BME280;3962;42.696;23.354;2022-11-20T03:31:14;94538.72;;;18.53;60.76
7834;BME280;3962;42.696;23.354;2022-11-20T03:33:52;94535.13;;;18.66;59.94
7834;BME280;3962;42.696;23.354;2022-11-20T03:36:20;94550.50;;;18.52;60.91
7834;BME280;3962;42.696;23.354;2022-11-20T03:38:53;94539.13;;;18.50;60.67
7834;BME280;3962;42.696;23.354;2022-11-20T03:41:25;94545.56;;;18.49;60.80
7834;BME280;3962;42.696;23.354;2022-11-20T03:43:56;94559.22;;;18.48;60.80
7834;BME280;3962;42.696;23.354;2022-11-20T03:46:28;94559.00;;;18.56;60.69
7834;BME280;3962;42.696;23.354;2022-11-20T03:49:03;94551.78;;;18.50;60.69
7834;BME280;3962;42.696;23.354;2022-11-20T03:51:33;94550.50;;;18.52;60.48
7834;BME280;3962;42.696;23.354;2022-11-20T03:54:13;94542.63;;;18.57;60.42
7834;BME280;3962;42.696;23.354;2022-11-20T03:56:41;94540.78;;;18.51;60.81
7834;BME280;3962;42.696;23.354;2022-11-20T03:59:10;94529.84;;;18.40;61.03
7834;BME280;3962;42.696;23.354;2022-11-20T04:01:37;94531.03;;;18.50;60.47
7834;BME280;3962;42.696;23.354;2022-11-20T04:04:16;94537.50;;;18.43;61.75
7834;BME280;3962;42.696;23.354;2022-11-20T04:06:52;94547.06;;;18.26;61.85
7834;BME280;3962;42.696;23.354;2022-11-20T04:09:19;94542.72;;;18.31;61.12
7834;BME280;3962;42.696;23.354;2022-11-20T04:11:47;94555.38;;;18.18;62.23
7834;BME280;3962;42.696;23.354;2022-11-20T04:14:42;94552.25;;;18.08;62.74
7834;BME280;3962;42.696;23.354;2022-11-20T04:17:10;94554.34;;;18.06;62.61
7834;BME280;3962;42.696;23.354;2022-11-20T04:19:39;94548.53;;;18.09;62.34
7834;BME280;3962;42.696;23.354;2022-11-20T04:22:06;94553.53;;;17.99;62.75
7834;BME280;3962;42.696;23.354;2022-11-20T04:24:34;94555.78;;;18.08;62.79
7834;BME280;3962;42.696;23.354;2022-11-20T04:27:07;94548.09;;;18.31;60.57
7834;BME280;3962;42.696;23.354;2022-11-20T04:29:41;94538.56;;;18.42;60.84
7834;BME280;3962;42.696;23.354;2022-11-20T04:32:08;94546.22;;;18.32;61.34
7834;BME280;3962;42.696;23.354;2022-11-20T04:34:36;94534.63;;;18.18;60.92
7834;BME280;3962;42.696;23.354;2022-11-20T04:37:11;94550.34;;;18.21;61.29
7834;BME280;3962;42.696;23.354;2022-11-20T04:39:39;94560.13;;;18.16;61.47
7834;BME280;3962;42.696;23.354;2022-11-20T04:42:10;94558.50;;;18.08;62.18
7834;BME280;3962;42.696;23.354;2022-11-20T04:44:58;94564.91;;;18.07;62.28
7834;BME280;3962;42.696;23.354;2022-11-20T04:47:25;94562.19;;;18.14;62.21
7834;BME280;3962;42.696;23.354;2022-11-20T04:49:53;94545.38;;;18.25;61.96
7834;BME280;3962;42.696;23.354;2022-11-20T04:52:20;94552.25;;;18.21;61.68
7834;BME280;3962;42.696;23.354;2022-11-20T04:54:49;94547.28;;;18.11;62.33
7834;BME280;3962;42.696;23.354;2022-11-20T04:57:20;94543.19;;;17.96;63.08
7834;BME280;3962;42.696;23.354;2022-11-20T05:02:41;94532.66;;;17.88;63.05
7834;BME280;3962;42.696;23.354;2022-11-20T05:05:10;94523.53;;;17.89;63.25
7834;BME280;3962;42.696;23.354;2022-11-20T05:07:36;94517.25;;;18.08;62.07
7834;BME280;3962;42.696;23.354;2022-11-20T05:10:04;94500.69;;;18.17;60.59
7834;BME280;3962;42.696;23.354;2022-11-20T05:12:32;94520.56;;;18.16;60.96
7834;BME280;3962;42.696;23.354;2022-11-20T05:14:59;94528.22;;;18.19;61.44
7834;BME280;3962;42.696;23.354;2022-11-20T05:17:26;94512.53;;;18.10;61.72
7834;BME280;3962;42.696;23.354;2022-11-20T05:19:53;94511.28;;;17.99;62.28
7834;BME280;3962;42.696;23.354;2022-11-20T05:22:19;94514.59;;;18.01;62.27
7834;BME280;3962;42.696;23.354;2022-11-20T05:24:46;94513.75;;;18.01;62.44
7834;BME280;3962;42.696;23.354;2022-11-20T05:27:13;94511.06;;;18.01;62.68
7834;BME280;3962;42.696;23.354;2022-11-20T05:29:41;94521.22;;;17.86;63.54
7834;BME280;3962;42.696;23.354;2022-11-20T05:32:08;94507.59;;;17.81;64.72
7834;BME280;3962;42.696;23.354;2022-11-20T05:34:35;94505.97;;;17.67;65.90
7834;BME280;3962;42.696;23.354;2022-11-20T05:37:02;94516.13;;;17.45;68.46
7834;BME280;3962;42.696;23.354;2022-11-20T05:39:29;94528.28;;;17.35;69.20
7834;BME280;3962;42.696;23.354;2022-11-20T05:41:56;94518.78;;;17.19;69.91
7834;BME280;3962;42.696;23.354;2022-11-20T05:44:36;94536.75;;;17.19;70.89
7834;BME280;3962;42.696;23.354;2022-11-20T05:47:05;94521.66;;;17.11;71.64
7834;BME280;3962;42.696;23.354;2022-11-20T05:49:32;94528.03;;;17.10;71.63
7834;BME280;3962;42.696;23.354;2022-11-20T05:51:59;94531.75;;;17.09;71.64
7834;BME280;3962;42.696;23.354;2022-11-20T05:54:25;94540.66;;;17.10;71.71
7834;BME280;3962;42.696;23.354;2022-11-20T05:56:52;94529.50;;;17.13;70.90
7834;BME280;3962;42.696;23.354;2022-11-20T05:59:19;94528.25;;;17.15;70.96
7834;BME280;3962;42.696;23.354;2022-11-20T06:01:46;94516.47;;;17.23;70.25
7834;BME280;3962;42.696;23.354;2022-11-20T06:04:14;94527.44;;;17.21;70.41
7834;BME280;3962;42.696;23.354;2022-11-20T06:06:41;94533.44;;;17.23;69.86
7834;BME280;3962;42.696;23.354;2022-11-20T06:09:07;94538.19;;;17.34;68.90
7834;BME280;3962;42.696;23.354;2022-11-20T06:11:34;94533.72;;;17.48;68.62
7834;BME280;3962;42.696;23.354;2022-11-20T06:14:01;94521.69;;;17.50;68.36
7834;BME280;3962;42.696;23.354;2022-11-20T06:16:28;94526.06;;;17.51;67.86
7834;BME280;3962;42.696;23.354;2022-11-20T06:18:55;94519.63;;;17.52;67.99
7834;BME280;3962;42.696;23.354;2022-11-20T06:21:23;94535.97;;;17.44;68.54
7834;BME280;3962;42.696;23.354;2022-11-20T06:23:52;94522.13;;;17.41;68.61
7834;BME280;3962;42.696;23.354;2022-11-20T06:26:20;94538.84;;;17.49;68.27
7834;BME280;3962;42.696;23.354;2022-11-20T06:28:48;94532.25;;;17.58;67.35
7834;BME280;3962;42.696;23.354;2022-11-20T06:31:17;94534.72;;;17.60;67.37
7834;BME280;3962;42.696;23.354;2022-11-20T06:33:45;94543.03;;;17.58;67.58
7834;BME280;3962;42.696;23.354;2022-11-20T06:36:13;94531.63;;;17.56;67.69
7834;BME280;3962;42.696;23.354;2022-11-20T06:38:42;94525.00;;;17.59;67.83
7834;BME280;3962;42.696;23.354;2022-11-20T06:41:11;94536.38;;;17.61;67.86
7834;BME280;3962;42.696;23.354;2022-11-20T06:43:39;94524.38;;;17.57;68.09
7834;BME280;3962;42.696;23.354;2022-11-20T06:46:06;94526.47;;;17.55;67.95
7834;BME280;3962;42.696;23.354;2022-11-20T06:48:33;94532.66;;;17.55;67.91
7834;BME280;3962;42.696;23.354;2022-11-20T06:50:59;94532.25;;;17.58;67.85
7834;BME280;3962;42.696;23.354;2022-11-20T06:53:29;94529.16;;;17.61;66.98
7834;BME280;3962;42.696;23.354;2022-11-20T06:55:57;94546.94;;;17.69;66.87
7834;BME280;3962;42.696;23.354;2022-11-20T06:58:26;94539.28;;;17.66;67.04
7834;BME280;3962;42.696;23.354;2022-11-20T07:00:53;94542.81;;;17.66;66.82
7834;BME280;3962;42.696;23.354;2022-11-20T07:03:20;94547.34;;;17.66;66.88
7834;BME280;3962;42.696;23.354;2022-11-20T07:05:54;94553.34;;;17.61;67.04
7834;BME280;3962;42.696;23.354;2022-11-20T07:08:21;94541.97;;;17.66;66.45
7834;BME280;3962;42.696;23.354;2022-11-20T07:10:48;94544.22;;;17.69;68.80
7834;BME280;3962;42.696;23.354;2022-11-20T07:13:16;94550.44;;;17.76;66.60
7834;BME280;3962;42.696;23.354;2022-11-20T07:15:43;94564.50;;;17.97;67.63
7834;BME280;3962;42.696;23.354;2022-11-20T07:18:10;94573.97;;;18.19;66.52
7834;BME280;3962;42.696;23.354;2022-11-20T07:20:36;94570.06;;;18.09;64.73
7834;BME280;3962;42.696;23.354;2022-11-20T07:23:03;94569.25;;;17.95;64.47
7834;BME280;3962;42.696;23.354;2022-11-20T07:25:30;94565.97;;;17.87;64.61
7834;BME280;3962;42.696;23.354;2022-11-20T07:27:57;94569.28;;;17.82;64.88
7834;BME280;3962;42.696;23.354;2022-11-20T07:30:25;94577.16;;;17.77;65.51
7834;BME280;3962;42.696;23.354;2022-11-20T07:32:53;94570.75;;;17.72;65.44
7834;BME280;3962;42.696;23.354;2022-11-20T07:35:20;94572.59;;;17.71;65.01
7834;BME280;3962;42.696;23.354;2022-11-20T07:37:47;94572.59;;;17.65;65.19
7834;BME280;3962;42.696;23.354;2022-11-20T07:40:14;94575.28;;;17.65;65.25
7834;BME280;3962;42.696;23.354;2022-11-20T07:42:47;94576.31;;;17.70;65.09
7834;BME280;3962;42.696;23.354;2022-11-20T07:45:14;94576.13;;;17.72;64.72
7834;BME280;3962;42.696;23.354;2022-11-20T07:47:42;94571.75;;;17.64;64.75
7834;BME280;3962;42.696;23.354;2022-11-20T07:50:09;94580.66;;;17.65;65.33
7834;BME280;3962;42.696;23.354;2022-11-20T07:52:36;94574.66;;;17.56;65.88
7834;BME280;3962;42.696;23.354;2022-11-20T07:55:04;94569.91;;;17.52;65.72
7834;BME280;3962;42.696;23.354;2022-11-20T07:57:30;94568.84;;;17.53;65.36
7834;BME280;3962;42.696;23.354;2022-11-20T07:59:57;94577.75;;;17.60;65.58
7834;BME280;3962;42.696;23.354;2022-11-20T08:02:24;94568.25;;;17.57;65.53
7834;BME280;3962;42.696;23.354;2022-11-20T08:04:52;94567.84;;;17.60;65.71
7834;BME280;3962;42.696;23.354;2022-11-20T08:07:19;94566.81;;;17.61;65.88
7834;BME280;3962;42.696;23.354;2022-11-20T08:09:46;94570.94;;;17.64;66.09
7834;BME280;3962;42.696;23.354;2022-11-20T08:12:17;94567.84;;;17.67;66.02
7834;BME280;3962;42.696;23.354;2022-11-20T08:15:03;94554.78;;;17.70;65.60
7834;BME280;3962;42.696;23.354;2022-11-20T08:17:31;94558.94;;;17.73;65.21
7834;BME280;3962;42.696;23.354;2022-11-20T08:19:59;94564.09;;;17.68;65.81
7834;BME280;3962;42.696;23.354;2022-11-20T08:22:26;94562.25;;;17.68;65.29
7834;BME280;3962;42.696;23.354;2022-11-20T08:24:53;94541.56;;;17.75;64.43
7834;BME280;3962;42.696;23.354;2022-11-20T08:27:20;94551.88;;;17.85;63.96
7834;BME280;3962;42.696;23.354;2022-11-20T08:29:47;94560.97;;;18.03;62.76
7834;BME280;3962;42.696;23.354;2022-11-20T08:32:14;94569.88;;;18.04;63.41
7834;BME280;3962;42.696;23.354;2022-11-20T08:34:40;94573.59;;;17.96;63.80
7834;BME280;3962;42.696;23.354;2022-11-20T08:37:08;94588.13;;;17.89;64.16
7834;BME280;3962;42.696;23.354;2022-11-20T08:39:35;94590.19;;;17.93;64.51
7834;BME280;3962;42.696;23.354;2022-11-20T08:42:06;94586.47;;;17.75;66.29
7834;BME280;3962;42.696;23.354;2022-11-20T08:44:33;94581.91;;;17.56;67.47
7834;BME280;3962;42.696;23.354;2022-11-20T08:47:00;94589.97;;;17.43;68.68
7834;BME280;3962;42.696;23.354;2022-11-20T08:49:27;94591.19;;;17.40;68.88
7834;BME280;3962;42.696;23.354;2022-11-20T08:51:54;94608.94;;;17.28;69.68
7834;BME280;3962;42.696;23.354;2022-11-20T08:54:22;94600.47;;;17.31;67.60
7834;BME280;3962;42.696;23.354;2022-11-20T08:56:49;94611.91;;;17.40;69.90
7834;BME280;3962;42.696;23.354;2022-11-20T08:59:16;94623.84;;;17.31;71.12
7834;BME280;3962;42.696;23.354;2022-11-20T09:01:42;94621.75;;;17.20;72.15
7834;BME280;3962;42.696;23.354;2022-11-20T09:04:11;94609.50;;;17.11;73.12
7834;BME280;3962;42.696;23.354;2022-11-20T09:06:41;94619.47;;;17.17;72.68
7834;BME280;3962;42.696;23.354;2022-11-20T09:09:11;94618.84;;;17.21;72.62
7834;BME280;3962;42.696;23.354;2022-11-20T09:11:43;94620.09;;;17.19;72.69
7834;BME280;3962;42.696;23.354;2022-11-20T09:14:13;94622.97;;;17.17;73.43
7834;BME280;3962;42.696;23.354;2022-11-20T09:16:45;94623.63;;;17.19;74.09
7834;BME280;3962;42.696;23.354;2022-11-20T09:19:21;94620.28;;;17.17;73.57
7834;BME280;3962;42.696;23.354;2022-11-20T09:21:48;94635.41;;;17.25;74.16
7834;BME280;3962;42.696;23.354;2022-11-20T09:24:15;94621.75;;;17.26;75.68
7834;BME280;3962;42.696;23.354;2022-11-20T09:26:43;94620.50;;;17.16;73.37
7834;BME280;3962;42.696;23.354;2022-11-20T09:29:11;94623.13;;;16.96;73.98
7834;BME280;3962;42.696;23.354;2022-11-20T09:31:37;94622.56;;;16.67;74.36
7834;BME280;3962;42.696;23.354;2022-11-20T09:34:04;94618.09;;;16.40;76.76
7834;BME280;3962;42.696;23.354;2022-11-20T09:36:31;94619.97;;;16.12;77.95
7834;BME280;3962;42.696;23.354;2022-11-20T09:38:58;94614.88;;;15.96;76.65
7834;BME280;3962;42.696;23.354;2022-11-20T09:41:36;94603.97;;;15.97;77.95
7834;BME280;3962;42.696;23.354;2022-11-20T09:44:24;94592.50;;;16.10;78.48
7834;BME280;3962;42.696;23.354;2022-11-20T09:46:57;94589.44;;;16.13;78.02
7834;BME280;3962;42.696;23.354;2022-11-20T09:49:32;94585.91;;;16.12;79.83
7834;BME280;3962;42.696;23.354;2022-11-20T09:52:11;94579.53;;;16.20;80.02
7834;BME280;3962;42.696;23.354;2022-11-20T09:54:42;94588.88;;;16.24;80.97
7834;BME280;3962;42.696;23.354;2022-11-20T09:57:13;94581.28;;;16.34;80.89
7834;BME280;3962;42.696;23.354;2022-11-20T09:59:43;94578.38;;;16.29;80.41
7834;BME280;3962;42.696;23.354;2022-11-20T10:02:16;94578.31;;;16.22;80.15
7834;BME280;3962;42.696;23.354;2022-11-20T10:04:47;94573.13;;;16.14;81.56
7834;BME280;3962;42.696;23.354;2022-11-20T10:07:19;94570.56;;;16.00;83.15
7834;BME280;3962;42.696;23.354;2022-11-20T10:09:50;94566.75;;;15.88;85.09
7834;BME280;3962;42.696;23.354;2022-11-20T10:12:23;94563.00;;;15.82;86.31
7834;BME280;3962;42.696;23.354;2022-11-20T10:15:06;94569.59;;;15.80;87.69
7834;BME280;3962;42.696;23.354;2022-11-20T10:17:53;94558.56;;;15.68;87.06
7834;BME280;3962;42.696;23.354;2022-11-20T10:20:29;94549.00;;;15.59;86.74
7834;BME280;3962;42.696;23.354;2022-11-20T10:25:53;94539.28;;;15.52;87.52
7834;BME280;3962;42.696;23.354;2022-11-20T10:28:32;94544.69;;;15.58;87.61
7834;BME280;3962;42.696;23.354;2022-11-20T10:31:11;94541.59;;;15.61;88.03
7834;BME280;3962;42.696;23.354;2022-11-20T10:33:42;94558.38;;;15.70;86.83
7834;BME280;3962;42.696;23.354;2022-11-20T10:36:15;94555.75;;;15.76;87.11
7834;BME280;3962;42.696;23.354;2022-11-20T10:38:48;94560.31;;;15.82;86.97
7834;BME280;3962;42.696;23.354;2022-11-20T10:41:24;94559.94;;;15.85;87.39
7834;BME280;3962;42.696;23.354;2022-11-20T10:44:00;94555.81;;;15.83;87.46
7834;BME280;3962;42.696;23.354;2022-11-20T10:46:36;94558.63;;;15.75;88.31
7834;BME280;3962;42.696;23.354;2022-11-20T10:49:11;94566.47;;;15.76;88.56
7834;BME280;3962;42.696;23.354;2022-11-20T10:51:48;94566.38;;;15.91;88.44
7834;BME280;3962;42.696;23.354;2022-11-20T10:54:22;94562.31;;;16.01;88.09
7834;BME280;3962;42.696;23.354;2022-11-20T10:56:56;94547.47;;;16.05;88.15
7834;BME280;3962;42.696;23.354;2022-11-20T10:59:44;94574.03;;;15.94;88.79
7834;BME280;3962;42.696;23.354;2022-11-20T11:02:19;94574.88;;;15.94;89.34
7834;BME280;3962;42.696;23.354;2022-11-20T11:04:47;94556.69;;;15.90;90.09
7834;BME280;3962;42.696;23.354;2022-11-20T11:07:16;94596.06;;;15.89;90.65
7834;BME280;3962;42.696;23.354;2022-11-20T11:09:47;94609.22;;;15.84;91.76
7834;BME280;3962;42.696;23.354;2022-11-20T11:12:15;94602.03;;;15.36;89.89
7834;BME280;3962;42.696;23.354;2022-11-20T11:14:42;94576.22;;;14.93;89.51
7834;BME280;3962;42.696;23.354;2022-11-20T11:17:21;94610.53;;;14.48;87.52
7834;BME280;3962;42.696;23.354;2022-11-20T11:19:59;94619.53;;;14.47;86.51
7834;BME280;3962;42.696;23.354;2022-11-20T11:22:28;94610.09;;;14.66;85.42
7834;BME280;3962;42.696;23.354;2022-11-20T11:24:55;94620.09;;;14.43;85.81
7834;BME280;3962;42.696;23.354;2022-11-20T11:27:21;94613.84;;;14.21;85.84
7834;BME280;3962;42.696;23.354;2022-11-20T11:29:48;94603.03;;;14.15;85.17
7834;BME280;3962;42.696;23.354;2022-11-20T11:32:19;94594.94;;;14.08;85.27
7834;BME280;3962;42.696;23.354;2022-11-20T11:34:59;94608.19;;;14.02;85.22
7834;BME280;3962;42.696;23.354;2022-11-20T11:37:32;94599.78;;;13.90;86.62
7834;BME280;3962;42.696;23.354;2022-11-20T11:40:00;94603.47;;;13.89;86.52
7834;BME280;3962;42.696;23.354;2022-11-20T11:42:28;94596.66;;;13.87;87.33
7834;BME280;3962;42.696;23.354;2022-11-20T11:44:56;94589.31;;;13.89;86.33
7834;BME280;3962;42.696;23.354;2022-11-20T11:47:37;94588.28;;;13.90;86.08
7834;BME280;3962;42.696;23.354;2022-11-20T11:50:16;94596.09;;;13.91;86.13
7834;BME280;3962;42.696;23.354;2022-11-20T11:52:46;94592.88;;;13.96;85.64
7834;BME280;3962;42.696;23.354;2022-11-20T11:55:19;94605.50;;;14.02;85.89
7834;BME280;3962;42.696;23.354;2022-11-20T11:57:54;94602.66;;;14.03;86.83
7834;BME280;3962;42.696;23.354;2022-11-20T12:00:24;94593.00;;;14.02;87.39
7834;BME280;3962;42.696;23.354;2022-11-20T12:03:05;94590.78;;;14.06;87.79
7834;BME280;3962;42.696;23.354;2022-11-20T12:05:40;94581.19;;;13.97;87.85
7834;BME280;3962;42.696;23.354;2022-11-20T12:08:15;94585.06;;;13.94;86.87
7834;BME280;3962;42.696;23.354;2022-11-20T12:10:47;94575.53;;;14.06;83.66
7834;BME280;3962;42.696;23.354;2022-11-20T12:13:22;94584.31;;;14.29;83.78
7834;BME280;3962;42.696;23.354;2022-11-20T12:15:53;94572.41;;;14.32;83.50
7834;BME280;3962;42.696;23.354;2022-11-20T12:18:22;94586.63;;;14.32;83.05
7834;BME280;3962;42.696;23.354;2022-11-20T12:21:00;94592.41;;;14.36;82.85
7834;BME280;3962;42.696;23.354;2022-11-20T12:23:33;94584.38;;;14.36;83.31
7834;BME280;3962;42.696;23.354;2022-11-20T12:26:07;94591.44;;;14.37;82.88
7834;BME280;3962;42.696;23.354;2022-11-20T12:28:44;94578.06;;;14.37;84.52
7834;BME280;3962;42.696;23.354;2022-11-20T12:31:37;94602.97;;;14.23;85.09
7834;BME280;3962;42.696;23.354;2022-11-20T12:37:16;94595.16;;;13.84;85.15
7834;BME280;3962;42.696;23.354;2022-11-20T12:39:47;94568.97;;;13.80;85.73
7834;BME280;3962;42.696;23.354;2022-11-20T12:48:17;94514.22;;;13.90;86.85
7834;BME280;3962;42.696;23.354;2022-11-20T12:51:04;94522.06;;;13.92;87.28
7834;BME280;3962;42.696;23.354;2022-11-20T12:53:42;94529.44;;;13.90;88.99
7834;BME280;3962;42.696;23.354;2022-11-20T12:56:21;94546.06;;;13.85;90.28
7834;BME280;3962;42.696;23.354;2022-11-20T12:59:02;94543.19;;;13.58;90.94
7834;BME280;3962;42.696;23.354;2022-11-20T13:01:38;94552.72;;;13.52;91.79
7834;BME280;3962;42.696;23.354;2022-11-20T13:04:16;94554.13;;;13.48;92.76
7834;BME280;3962;42.696;23.354;2022-11-20T13:06:46;94548.31;;;13.45;93.86
7834;BME280;3962;42.696;23.354;2022-11-20T13:09:17;94541.94;;;13.31;94.20
7834;BME280;3962;42.696;23.354;2022-11-20T13:11:50;94529.00;;;13.20;93.06
7834;BME280;3962;42.696;23.354;2022-11-20T13:14:32;94504.69;;;13.15;93.80
7834;BME280;3962;42.696;23.354;2022-11-20T13:17:04;94502.19;;;12.99;94.20
7834;BME280;3962;42.696;23.354;2022-11-20T13:19:32;94480.06;;;13.05;92.87
7834;BME280;3962;42.696;23.354;2022-11-20T13:21:59;94524.28;;;13.08;93.71
7834;BME280;3962;42.696;23.354;2022-11-20T13:24:29;94525.59;;;13.12;94.71
7834;BME280;3962;42.696;23.354;2022-11-20T13:27:16;94545.31;;;13.11;96.17
7834;BME280;3962;42.696;23.354;2022-11-20T13:29:45;94513.72;;;13.14;96.35
7834;BME280;3962;42.696;23.354;2022-11-20T13:32:15;94508.00;;;13.17;93.26
7834;BME280;3962;42.696;23.354;2022-11-20T13:34:54;94552.22;;;13.20;93.94
7834;BME280;3962;42.696;23.354;2022-11-20T13:37:28;94569.91;;;13.21;95.76
7834;BME280;3962;42.696;23.354;2022-11-20T13:40:12;94527.09;;;13.29;94.79
7834;BME280;3962;42.696;23.354;2022-11-20T13:42:43;94539.53;;;13.36;94.46
7834;BME280;3962;42.696;23.354;2022-11-20T13:45:21;94577.06;;;13.43;94.72
7834;BME280;3962;42.696;23.354;2022-11-20T13:47:49;94533.13;;;13.45;94.21
7834;BME280;3962;42.696;23.354;2022-11-20T13:50:17;94529.22;;;13.33;94.64